createdAt,value
2018-08-18T00:00:22.870Z,24.14
2018-08-18T00:02:51.583Z,24.05
2018-08-18T00:05:20.067Z,24.00
2018-08-18T00:07:48.683Z,23.93
2018-08-18T00:10:23.783Z,23.90
2018-08-18T00:12:52.674Z,23.91
2018-08-18T00:15:21.379Z,23.89
2018-08-18T00:17:50.340Z,23.90
2018-08-18T00:20:20.683Z,23.87
2018-08-18T00:22:54.355Z,23.88
2018-08-18T00:25:22.860Z,23.86
2018-08-18T00:27:51.732Z,23.84
2018-08-18T00:30:26.160Z,23.86
2018-08-18T00:32:59.701Z,23.87
2018-08-18T00:35:28.266Z,23.86
2018-08-18T00:37:56.717Z,23.85
2018-08-18T00:40:25.227Z,23.84
2018-08-18T00:42:53.855Z,23.84
2018-08-18T00:45:22.541Z,23.84
2018-08-18T00:47:51.887Z,23.85
2018-08-18T00:50:35.537Z,23.80
2018-08-18T00:53:05.131Z,23.75
2018-08-18T00:55:34.227Z,23.76
2018-08-18T00:58:02.791Z,23.76
2018-08-18T01:00:31.337Z,23.75
2018-08-18T01:03:00.419Z,23.69
2018-08-18T01:05:28.925Z,23.74
2018-08-18T01:07:57.366Z,23.71
2018-08-18T01:10:25.891Z,23.70
2018-08-18T01:12:54.505Z,23.68
2018-08-18T01:15:26.624Z,23.67
2018-08-18T01:17:55.519Z,23.66
2018-08-18T01:20:24.052Z,23.64
2018-08-18T01:23:00.740Z,23.56
2018-08-18T01:25:29.230Z,23.47
2018-08-18T01:28:01.704Z,23.50
2018-08-18T01:30:30.761Z,23.49
2018-08-18T01:32:59.347Z,23.44
2018-08-18T01:35:28.443Z,23.41
2018-08-18T01:37:57.040Z,23.32
2018-08-18T01:40:25.528Z,23.20
2018-08-18T01:43:07.638Z,23.20
2018-08-18T01:45:36.287Z,23.18
2018-08-18T01:48:04.906Z,23.18
2018-08-18T01:50:33.472Z,23.20
2018-08-18T01:53:20.568Z,23.14
2018-08-18T01:55:49.194Z,23.11
2018-08-18T01:58:17.853Z,23.11
2018-08-18T02:00:46.319Z,23.11
2018-08-18T02:03:14.773Z,23.13
2018-08-18T02:05:43.225Z,23.13
2018-08-18T02:08:11.757Z,23.15
2018-08-18T02:10:40.255Z,23.16
2018-08-18T02:13:08.924Z,23.17
2018-08-18T02:15:37.422Z,23.21
2018-08-18T02:18:05.928Z,23.15
2018-08-18T02:20:34.337Z,23.18
2018-08-18T02:23:03.014Z,23.24
2018-08-18T02:25:31.882Z,23.18
2018-08-18T02:28:00.388Z,23.11
2018-08-18T02:30:28.803Z,23.05
2018-08-18T02:33:02.304Z,23.03
2018-08-18T02:35:30.900Z,23.04
2018-08-18T02:37:59.428Z,23.00
2018-08-18T02:40:28.220Z,22.96
2018-08-18T02:43:11.581Z,22.94
2018-08-18T02:45:40.066Z,22.95
2018-08-18T02:48:14.842Z,22.95
2018-08-18T02:50:48.497Z,22.95
2018-08-18T02:53:25.411Z,22.95
2018-08-18T02:55:54.784Z,23.00
2018-08-18T02:58:23.461Z,22.99
2018-08-18T03:00:51.962Z,22.93
2018-08-18T03:03:20.465Z,22.89
2018-08-18T03:05:48.950Z,22.85
2018-08-18T03:08:17.507Z,22.86
2018-08-18T03:10:46.020Z,22.84
2018-08-18T03:13:14.629Z,22.80
2018-08-18T03:15:58.913Z,22.80
2018-08-18T03:18:36.863Z,22.81
2018-08-18T03:21:05.504Z,22.75
2018-08-18T03:23:49.087Z,22.67
2018-08-18T03:26:18.442Z,22.57
2018-08-18T03:28:53.271Z,22.49
2018-08-18T03:31:21.804Z,22.45
2018-08-18T03:33:50.266Z,22.48
2018-08-18T03:36:29.961Z,22.48
2018-08-18T03:38:59.027Z,22.54
2018-08-18T03:41:28.599Z,22.55
2018-08-18T03:43:57.609Z,22.58
2018-08-18T03:46:26.166Z,22.53
2018-08-18T03:48:54.626Z,22.57
2018-08-18T03:51:32.166Z,22.60
2018-08-18T03:54:02.502Z,22.55
2018-08-18T03:56:32.485Z,22.52
2018-08-18T03:59:01.740Z,22.49
2018-08-18T04:01:54.858Z,22.40
2018-08-18T04:04:24.722Z,22.34
2018-08-18T04:06:54.493Z,22.31
2018-08-18T04:09:24.483Z,22.27
2018-08-18T04:11:53.320Z,22.28
2018-08-18T04:14:54.672Z,22.29
2018-08-18T04:17:31.642Z,22.29
2018-08-18T04:20:00.283Z,22.27
2018-08-18T04:22:29.012Z,22.26
2018-08-18T04:24:57.659Z,22.20
2018-08-18T04:27:44.937Z,22.18
2018-08-18T04:30:16.624Z,22.24
2018-08-18T04:33:01.342Z,22.24
2018-08-18T04:35:30.988Z,22.26
2018-08-18T04:38:01.616Z,22.14
2018-08-18T04:40:30.208Z,22.05
2018-08-18T04:43:00.757Z,22.04
2018-08-18T04:45:29.537Z,22.14
2018-08-18T04:47:59.060Z,22.21
2018-08-18T04:50:28.100Z,22.23
2018-08-18T04:52:57.780Z,22.26
2018-08-18T04:55:26.542Z,22.30
2018-08-18T04:57:55.326Z,22.30
2018-08-18T05:00:25.428Z,22.24
2018-08-18T05:02:56.948Z,22.19
2018-08-18T05:05:29.974Z,22.24
2018-08-18T05:07:59.652Z,22.31
2018-08-18T05:10:28.326Z,22.39
2018-08-18T05:12:56.966Z,22.44
2018-08-18T05:15:25.361Z,22.51
2018-08-18T05:17:53.885Z,22.58
2018-08-18T05:20:24.316Z,22.62
2018-08-18T05:22:53.768Z,22.67
2018-08-18T05:25:27.100Z,22.67
2018-08-18T05:27:55.849Z,22.69
2018-08-18T05:30:24.426Z,22.68
2018-08-18T05:32:52.975Z,22.68
2018-08-18T05:35:21.531Z,22.71
2018-08-18T05:37:49.950Z,22.66
2018-08-18T05:40:18.419Z,22.65
2018-08-18T05:42:47.009Z,22.67
2018-08-18T05:45:25.879Z,22.72
2018-08-18T05:47:54.541Z,22.75
2018-08-18T05:50:25.636Z,22.75
2018-08-18T05:52:58.500Z,22.75
2018-08-18T05:55:27.120Z,22.71
2018-08-18T05:57:55.550Z,22.69
2018-08-18T06:00:25.724Z,22.74
2018-08-18T06:02:58.653Z,22.76
2018-08-18T06:05:29.785Z,22.81
2018-08-18T06:07:59.382Z,22.83
2018-08-18T06:10:27.924Z,22.88
2018-08-18T06:12:56.660Z,22.91
2018-08-18T06:15:25.576Z,22.90
2018-08-18T06:17:54.812Z,22.82
2018-08-18T06:20:24.752Z,22.79
2018-08-18T06:25:35.176Z,22.91
2018-08-18T06:28:03.789Z,22.99
2018-08-18T06:30:33.439Z,23.07
2018-08-18T06:33:03.757Z,23.09
2018-08-18T06:35:33.919Z,23.02
2018-08-18T06:38:04.515Z,23.00
2018-08-18T06:40:33.797Z,23.02
2018-08-18T06:43:03.336Z,22.94
2018-08-18T06:45:31.787Z,22.96
2018-08-18T06:48:17.745Z,23.02
2018-08-18T06:50:46.222Z,23.11
2018-08-18T06:53:15.448Z,23.14
2018-08-18T06:55:43.863Z,23.21
2018-08-18T06:58:12.431Z,23.27
2018-08-18T07:00:40.905Z,23.30
2018-08-18T07:03:20.714Z,23.35
2018-08-18T07:05:49.283Z,23.40
2018-08-18T07:08:17.770Z,23.42
2018-08-18T07:10:46.486Z,23.42
2018-08-18T07:13:15.108Z,23.40
2018-08-18T07:15:44.891Z,23.44
2018-08-18T07:18:14.394Z,23.49
2018-08-18T07:20:43.791Z,23.49
2018-08-18T07:23:12.321Z,23.43
2018-08-18T07:25:48.161Z,23.45
2018-08-18T07:28:23.303Z,23.50
2018-08-18T07:30:51.868Z,23.57
2018-08-18T07:33:20.474Z,23.62
2018-08-18T07:35:49.202Z,23.69
2018-08-18T07:38:17.744Z,23.74
2018-08-18T07:40:48.894Z,23.70
2018-08-18T07:43:19.965Z,23.66
2018-08-18T07:45:49.566Z,23.68
2018-08-18T07:48:18.111Z,23.65
2018-08-18T07:50:46.589Z,23.62
2018-08-18T07:53:15.340Z,23.53
2018-08-18T07:55:43.699Z,23.43
2018-08-18T07:58:14.864Z,23.47
2018-08-18T08:00:43.600Z,23.58
2018-08-18T08:03:17.925Z,23.68
2018-08-18T08:05:46.556Z,23.72
2018-08-18T08:08:15.074Z,23.82
2018-08-18T08:10:43.725Z,23.81
2018-08-18T08:13:13.692Z,23.84
2018-08-18T08:15:42.202Z,23.87
2018-08-18T08:18:13.505Z,23.88
2018-08-18T08:20:42.030Z,23.87
2018-08-18T08:23:10.575Z,23.87
2018-08-18T08:25:39.489Z,23.84
2018-08-18T08:28:07.998Z,23.84
2018-08-18T08:30:37.440Z,23.86
2018-08-18T08:33:06.534Z,23.93
2018-08-18T08:35:37.763Z,24.00
2018-08-18T08:38:06.299Z,23.99
2018-08-18T08:40:35.150Z,24.04
2018-08-18T08:43:03.813Z,24.07
2018-08-18T08:45:32.303Z,24.07
2018-08-18T08:48:00.832Z,24.08
2018-08-18T08:50:29.400Z,24.06
2018-08-18T08:52:58.252Z,24.08
2018-08-18T08:55:28.957Z,24.11
2018-08-18T08:57:57.438Z,24.15
2018-08-18T09:00:26.006Z,24.23
2018-08-18T09:02:54.502Z,24.29
2018-08-18T09:05:23.147Z,24.38
2018-08-18T09:07:51.770Z,24.46
2018-08-18T09:10:20.510Z,24.48
2018-08-18T09:12:48.945Z,24.51
2018-08-18T09:15:17.922Z,24.49
2018-08-18T09:17:46.529Z,24.47
2018-08-18T09:20:17.372Z,24.54
2018-08-18T09:22:53.707Z,24.59
2018-08-18T09:25:22.520Z,24.61
2018-08-18T09:27:55.641Z,24.64
2018-08-18T09:30:25.114Z,24.67
2018-08-18T09:32:53.743Z,24.82
2018-08-18T09:35:22.236Z,24.96
2018-08-18T09:37:55.212Z,24.98
2018-08-18T09:40:23.730Z,25.12
2018-08-18T09:42:52.313Z,25.24
2018-08-18T09:45:20.897Z,25.37
2018-08-18T09:47:49.302Z,25.57
2018-08-18T09:50:17.772Z,25.75
2018-08-18T09:52:46.271Z,25.90
2018-08-18T09:55:14.751Z,26.12
2018-08-18T09:57:43.848Z,26.24
2018-08-18T10:00:15.503Z,26.36
2018-08-18T10:02:45.378Z,26.42
2018-08-18T10:05:14.342Z,26.34
2018-08-18T10:07:43.316Z,26.49
2018-08-18T10:10:14.796Z,26.56
2018-08-18T10:12:44.503Z,26.57
2018-08-18T10:15:27.891Z,26.74
2018-08-18T10:17:57.290Z,26.64
2018-08-18T10:20:26.780Z,26.48
2018-08-18T10:22:57.084Z,26.30
2018-08-18T10:25:25.910Z,26.22
2018-08-18T10:27:55.330Z,26.20
2018-08-18T10:30:24.500Z,26.23
2018-08-18T10:32:54.896Z,26.40
2018-08-18T10:35:28.674Z,26.47
2018-08-18T10:37:57.420Z,26.39
2018-08-18T10:40:27.263Z,26.18
2018-08-18T10:42:57.065Z,25.96
2018-08-18T10:45:25.603Z,25.88
2018-08-18T10:47:54.308Z,25.84
2018-08-18T10:50:33.855Z,25.86
2018-08-18T10:53:12.171Z,25.88
2018-08-18T10:55:40.790Z,25.87
2018-08-18T10:58:10.333Z,25.76
2018-08-18T11:00:39.253Z,25.75
2018-08-18T11:03:08.948Z,25.75
2018-08-18T11:05:37.575Z,25.71
2018-08-18T11:08:07.005Z,25.71
2018-08-18T11:10:36.948Z,25.76
2018-08-18T11:13:05.603Z,25.80
2018-08-18T11:15:34.158Z,26.14
2018-08-18T11:18:02.725Z,26.78
2018-08-18T11:20:32.646Z,27.35
2018-08-18T11:23:07.855Z,28.02
2018-08-18T11:25:41.959Z,28.11
2018-08-18T11:28:11.351Z,27.81
2018-08-18T11:30:40.022Z,27.45
2018-08-18T11:33:08.583Z,27.75
2018-08-18T11:35:51.376Z,28.15
2018-08-18T11:38:20.043Z,28.27
2018-08-18T11:40:48.609Z,27.93
2018-08-18T11:43:17.616Z,27.63
2018-08-18T11:45:46.606Z,27.32
2018-08-18T11:48:31.392Z,27.17
2018-08-18T11:50:59.910Z,27.09
2018-08-18T11:53:28.511Z,26.89
2018-08-18T11:55:56.968Z,26.75
2018-08-18T11:58:25.599Z,27.12
2018-08-18T12:00:58.250Z,27.73
2018-08-18T12:03:32.490Z,28.12
2018-08-18T12:06:03.957Z,27.82
2018-08-18T12:08:33.650Z,27.47
2018-08-18T12:11:04.516Z,27.05
2018-08-18T12:13:38.393Z,26.75
2018-08-18T12:16:10.132Z,27.12
2018-08-18T12:18:39.406Z,27.75
2018-08-18T12:21:08.201Z,28.52
2018-08-18T12:23:37.696Z,29.43
2018-08-18T12:26:08.722Z,29.99
2018-08-18T12:28:42.463Z,30.28
2018-08-18T12:31:12.812Z,30.48
2018-08-18T12:33:41.457Z,30.32
2018-08-18T12:36:10.050Z,29.72
2018-08-18T12:38:43.464Z,29.57
2018-08-18T12:41:12.040Z,29.95
2018-08-18T12:43:41.993Z,30.34
2018-08-18T12:46:12.221Z,30.68
2018-08-18T12:48:41.865Z,30.54
2018-08-18T12:51:11.674Z,30.12
2018-08-18T12:53:45.616Z,29.37
2018-08-18T12:56:15.601Z,29.23
2018-08-18T12:58:44.232Z,29.30
2018-08-18T13:01:13.111Z,28.93
2018-08-18T13:03:41.904Z,29.01
2018-08-18T13:06:10.774Z,29.25
2018-08-18T13:08:39.261Z,29.03
2018-08-18T13:11:07.716Z,28.70
2018-08-18T13:13:36.344Z,28.51
2018-08-18T13:16:04.816Z,28.78
2018-08-18T13:18:34.059Z,29.32
2018-08-18T13:21:02.532Z,29.85
2018-08-18T13:23:31.120Z,30.06
2018-08-18T13:25:59.547Z,29.70
2018-08-18T13:28:28.054Z,29.81
2018-08-18T13:30:56.532Z,30.25
2018-08-18T13:33:26.015Z,30.51
2018-08-18T13:35:54.952Z,30.40
2018-08-18T13:38:30.315Z,30.04
2018-08-18T13:40:58.824Z,30.00
2018-08-18T13:43:39.429Z,30.25
2018-08-18T13:46:09.265Z,30.39
2018-08-18T13:48:37.958Z,30.31
2018-08-18T13:51:07.532Z,30.48
2018-08-18T13:53:40.302Z,30.65
2018-08-18T13:56:08.754Z,30.65
2018-08-18T13:58:37.378Z,30.70
2018-08-18T14:01:19.873Z,30.60
2018-08-18T14:03:48.388Z,30.52
2018-08-18T14:06:17.309Z,30.57
2018-08-18T14:08:48.228Z,30.25
2018-08-18T14:11:16.974Z,30.22
2018-08-18T14:13:45.495Z,30.26
2018-08-18T14:16:15.140Z,30.40
2018-08-18T14:18:43.724Z,30.48
2018-08-18T14:21:12.361Z,30.43
2018-08-18T14:23:41.161Z,30.22
2018-08-18T14:26:09.834Z,29.99
2018-08-18T14:28:38.255Z,29.48
2018-08-18T14:31:06.916Z,29.31
2018-08-18T14:33:35.514Z,29.51
2018-08-18T14:36:09.364Z,29.64
2018-08-18T14:38:37.931Z,29.73
2018-08-18T14:41:06.929Z,29.39
2018-08-18T14:43:38.534Z,29.02
2018-08-18T14:46:14.801Z,28.75
2018-08-18T14:48:43.375Z,28.42
2018-08-18T14:51:11.823Z,28.30
2018-08-18T14:53:42.009Z,28.45
2018-08-18T14:56:10.562Z,28.46
2018-08-18T14:58:42.948Z,28.47
2018-08-18T15:01:12.613Z,28.50
2018-08-18T15:03:41.777Z,28.49
2018-08-18T15:06:10.945Z,28.51
2018-08-18T15:08:39.435Z,28.44
2018-08-18T15:11:07.969Z,28.40
2018-08-18T15:13:36.384Z,28.38
2018-08-18T15:16:04.983Z,28.34
2018-08-18T15:18:33.444Z,28.28
2018-08-18T15:21:02.126Z,28.28
2018-08-18T15:23:30.462Z,28.23
2018-08-18T15:25:58.886Z,28.09
2018-08-18T15:28:28.580Z,28.05
2018-08-18T15:30:57.006Z,28.05
2018-08-18T15:33:26.730Z,28.00
2018-08-18T15:35:55.440Z,28.01
2018-08-18T15:38:43.483Z,27.98
2018-08-18T15:41:12.775Z,27.83
2018-08-18T15:43:41.223Z,27.72
2018-08-18T15:46:09.711Z,27.67
2018-08-18T15:48:42.880Z,27.64
2018-08-18T15:51:12.199Z,27.68
2018-08-18T15:53:50.205Z,27.66
2018-08-18T15:56:20.335Z,27.67
2018-08-18T15:58:49.811Z,27.66
2018-08-18T16:01:19.224Z,27.67
2018-08-18T16:03:48.960Z,27.66
2018-08-18T16:06:17.388Z,27.60
2018-08-18T16:08:45.921Z,27.55
2018-08-18T16:11:14.779Z,27.56
2018-08-18T16:13:43.273Z,27.52
2018-08-18T16:16:11.806Z,27.45
2018-08-18T16:18:40.182Z,27.37
2018-08-18T16:21:14.380Z,27.45
2018-08-18T16:23:43.546Z,27.48
2018-08-18T16:26:12.995Z,27.47
2018-08-18T16:28:42.011Z,27.33
2018-08-18T16:31:10.852Z,27.22
2018-08-18T16:33:39.378Z,27.24
2018-08-18T16:36:07.919Z,27.28
2018-08-18T16:38:36.409Z,27.21
2018-08-18T16:41:05.292Z,27.17
2018-08-18T16:43:35.281Z,27.21
2018-08-18T16:46:23.283Z,27.13
2018-08-18T16:48:52.676Z,27.06
2018-08-18T16:51:21.553Z,26.96
2018-08-18T16:53:50.329Z,26.97
2018-08-18T16:56:26.438Z,27.04
2018-08-18T16:58:56.252Z,27.12
2018-08-18T17:01:24.938Z,27.13
2018-08-18T17:03:53.546Z,27.04
2018-08-18T17:06:22.066Z,26.97
2018-08-18T17:08:50.554Z,26.94
2018-08-18T17:11:19.038Z,26.94
2018-08-18T17:13:47.873Z,27.06
2018-08-18T17:16:16.399Z,26.97
2018-08-18T17:18:44.914Z,26.86
2018-08-18T17:21:14.271Z,26.93
2018-08-18T17:23:46.052Z,27.02
2018-08-18T17:26:14.526Z,27.02
2018-08-18T17:28:43.016Z,26.90
2018-08-18T17:31:11.545Z,26.94
2018-08-18T17:33:40.031Z,26.91
2018-08-18T17:36:08.646Z,26.84
2018-08-18T17:38:37.535Z,26.81
2018-08-18T17:41:06.149Z,26.88
2018-08-18T17:43:34.678Z,26.94
2018-08-18T17:46:06.153Z,26.98
2018-08-18T17:48:40.537Z,27.02
2018-08-18T17:51:09.192Z,27.01
2018-08-18T17:53:42.684Z,26.96
2018-08-18T17:56:11.252Z,26.93
2018-08-18T17:58:39.737Z,26.93
2018-08-18T18:01:08.528Z,26.90
2018-08-18T18:03:36.944Z,26.87
2018-08-18T18:06:05.386Z,26.74
2018-08-18T18:08:33.876Z,26.74
2018-08-18T18:11:02.468Z,26.63
2018-08-18T18:13:31.219Z,26.52
2018-08-18T18:15:59.724Z,26.53
2018-08-18T18:18:36.371Z,26.51
2018-08-18T18:21:05.082Z,26.48
2018-08-18T18:23:38.635Z,26.53
2018-08-18T18:26:07.341Z,26.46
2018-08-18T18:28:36.146Z,26.40
2018-08-18T18:31:04.916Z,26.37
2018-08-18T18:33:39.261Z,26.38
2018-08-18T18:36:08.275Z,26.38
2018-08-18T18:38:51.969Z,26.31
2018-08-18T18:41:20.524Z,26.21
2018-08-18T18:43:55.747Z,26.14
2018-08-18T18:46:24.638Z,26.11
2018-08-18T18:51:50.794Z,26.15
2018-08-18T18:54:20.583Z,26.09
2018-08-18T18:56:55.573Z,26.03
2018-08-18T18:59:24.352Z,25.98
2018-08-18T19:02:03.260Z,25.93
2018-08-18T19:07:19.863Z,25.85
2018-08-18T19:09:53.848Z,25.80
2018-08-18T19:12:24.127Z,25.77
2018-08-18T19:17:39.251Z,25.72
2018-08-18T19:20:30.364Z,25.71
2018-08-18T19:23:21.369Z,25.67
2018-08-18T19:25:59.131Z,25.65
2018-08-18T19:28:28.104Z,25.63
2018-08-18T19:30:57.884Z,25.60
2018-08-18T19:33:31.667Z,25.57
2018-08-18T19:36:00.558Z,25.53
2018-08-18T19:38:29.092Z,25.51
2018-08-18T19:40:57.921Z,25.46
2018-08-18T19:43:27.713Z,25.41
2018-08-18T19:45:56.852Z,25.37
2018-08-18T19:48:26.984Z,25.35
2018-08-18T19:51:00.823Z,25.32
2018-08-18T19:53:35.776Z,25.31
2018-08-18T19:56:08.865Z,25.28
2018-08-18T19:58:37.560Z,25.24
2018-08-18T20:01:07.040Z,25.23
2018-08-18T20:03:36.078Z,25.22
2018-08-18T20:06:08.819Z,25.19
2018-08-18T20:08:37.506Z,25.16
2018-08-18T20:11:06.154Z,25.16
2018-08-18T20:13:34.785Z,25.17
2018-08-18T20:16:04.499Z,25.15
2018-08-18T20:18:33.833Z,25.13
2018-08-18T20:21:02.754Z,25.13
2018-08-18T20:23:31.351Z,25.09
2018-08-18T20:26:01.789Z,25.08
2018-08-18T20:28:31.826Z,25.04
2018-08-18T20:31:00.594Z,25.03
2018-08-18T20:33:34.483Z,25.07
2018-08-18T20:36:03.667Z,25.06
2018-08-18T20:38:38.366Z,25.08
2018-08-18T20:41:07.324Z,25.10
2018-08-18T20:43:42.304Z,25.10
2018-08-18T20:46:11.363Z,25.07
2018-08-18T20:48:40.118Z,25.01
2018-08-18T20:51:09.580Z,24.97
2018-08-18T20:56:40.591Z,24.88
2018-08-18T20:59:18.740Z,24.86
2018-08-18T21:01:47.976Z,24.84
2018-08-18T21:04:17.466Z,24.83
2018-08-18T21:06:46.903Z,24.82
2018-08-18T21:09:29.588Z,24.82
2018-08-18T21:12:04.343Z,24.84
2018-08-18T21:14:32.768Z,24.88
2018-08-18T21:17:01.420Z,24.88
2018-08-18T21:22:58.132Z,24.82
2018-08-18T21:25:39.581Z,24.76
2018-08-18T21:28:09.215Z,24.70
2018-08-18T21:30:38.106Z,24.69
2018-08-18T21:33:09.836Z,24.70
2018-08-18T21:35:39.988Z,24.68
2018-08-18T21:38:08.936Z,24.63
2018-08-18T21:40:41.244Z,24.57
2018-08-18T21:43:41.345Z,24.53
2018-08-18T21:46:12.012Z,24.47
2018-08-18T21:48:47.714Z,24.42
2018-08-18T21:51:17.371Z,24.39
2018-08-18T21:53:46.089Z,24.34
2018-08-18T21:56:16.825Z,24.32
2018-08-18T21:58:50.677Z,24.32
2018-08-18T22:01:23.802Z,24.30
2018-08-18T22:04:06.075Z,24.28
2018-08-18T22:06:35.111Z,24.25
2018-08-18T22:09:18.669Z,24.23
2018-08-18T22:11:48.501Z,24.19
2018-08-18T22:14:18.423Z,24.15
2018-08-18T22:16:55.526Z,24.16
2018-08-18T22:19:26.753Z,24.12
2018-08-18T22:22:00.259Z,24.09
2018-08-18T22:24:28.852Z,24.04
2018-08-18T22:26:57.494Z,24.00
2018-08-18T22:29:26.836Z,23.98
2018-08-18T22:31:55.856Z,23.93
2018-08-18T22:34:24.782Z,23.92
2018-08-18T22:37:01.006Z,23.92
2018-08-18T22:39:30.325Z,23.89
2018-08-18T22:41:58.974Z,23.88
2018-08-18T22:44:28.353Z,23.89
2018-08-18T22:47:00.886Z,23.86
2018-08-18T22:49:29.331Z,23.81
2018-08-18T22:52:02.854Z,23.81
2018-08-18T22:54:31.454Z,23.76
2018-08-18T22:57:01.916Z,23.72
2018-08-18T22:59:30.865Z,23.79
2018-08-18T23:01:59.640Z,23.84
2018-08-18T23:04:32.253Z,23.81
2018-08-18T23:07:02.628Z,23.82
2018-08-18T23:09:31.784Z,23.74
2018-08-18T23:12:02.316Z,23.73
2018-08-18T23:14:34.366Z,23.65
2018-08-18T23:17:03.223Z,23.58
2018-08-18T23:19:32.878Z,23.54
2018-08-18T23:22:07.120Z,23.50
2018-08-18T23:24:39.353Z,23.43
2018-08-18T23:27:08.367Z,23.37
2018-08-18T23:29:38.176Z,23.36
2018-08-18T23:35:09.654Z,23.33
2018-08-18T23:37:38.534Z,23.33
2018-08-18T23:40:07.906Z,23.34
2018-08-18T23:42:46.115Z,23.33
2018-08-18T23:45:16.024Z,23.36
2018-08-18T23:47:53.250Z,23.34
2018-08-18T23:50:22.055Z,23.35
2018-08-18T23:53:00.249Z,23.34
2018-08-18T23:55:30.169Z,23.32
2018-08-18T23:57:59.964Z,23.30
